sensor_id;sensor_type;location;lat;lon;timestamp;P1;durP1;ratioP1;P2;durP2;ratioP2
11935;SDS011;6027;48.576;9.180;2024-02-26T00:01:37;1.23;;;1.02;;
11935;SDS011;6027;48.576;9.180;2024-02-26T00:04:02;1.33;;;0.90;;
11935;SDS011;6027;48.576;9.180;2024-02-26T00:06:28;2.50;;;0.90;;
11935;SDS011;6027;48.576;9.180;2024-02-26T00:08:55;1.58;;;1.00;;
11935;SDS011;6027;48.576;9.180;2024-02-26T00:11:20;0.63;;;0.63;;
11935;SDS011;6027;48.576;9.180;2024-02-26T00:13:46;1.13;;;1.02;;
11935;SDS011;6027;48.576;9.180;2024-02-26T00:16:11;0.80;;;0.80;;
11935;SDS011;6027;48.576;9.180;2024-02-26T00:18:36;1.45;;;0.93;;
11935;SDS011;6027;48.576;9.180;2024-02-26T00:21:02;1.10;;;1.00;;
11935;SDS011;6027;48.576;9.180;2024-02-26T00:23:28;1.40;;;0.98;;
11935;SDS011;6027;48.576;9.180;2024-02-26T00:25:53;1.10;;;0.95;;
11935;SDS011;6027;48.576;9.180;2024-02-26T00:28:20;1.10;;;1.00;;
11935;SDS011;6027;48.576;9.180;2024-02-26T00:30:46;1.85;;;1.10;;
11935;SDS011;6027;48.576;9.180;2024-02-26T00:33:12;2.03;;;1.23;;
11935;SDS011;6027;48.576;9.180;2024-02-26T00:35:37;1.80;;;1.02;;
11935;SDS011;6027;48.576;9.180;2024-02-26T00:38:03;0.80;;;0.80;;
11935;SDS011;6027;48.576;9.180;2024-02-26T00:40:29;0.77;;;0.77;;
11935;SDS011;6027;48.576;9.180;2024-02-26T00:42:54;0.98;;;0.80;;
11935;SDS011;6027;48.576;9.180;2024-02-26T00:45:20;0.90;;;0.80;;
11935;SDS011;6027;48.576;9.180;2024-02-26T00:47:45;1.00;;;0.90;;
11935;SDS011;6027;48.576;9.180;2024-02-26T00:50:12;1.33;;;1.10;;
11935;SDS011;6027;48.576;9.180;2024-02-26T00:52:38;1.20;;;1.10;;
11935;SDS011;6027;48.576;9.180;2024-02-26T00:55:03;1.48;;;1.00;;
11935;SDS011;6027;48.576;9.180;2024-02-26T00:57:29;0.95;;;0.95;;
11935;SDS011;6027;48.576;9.180;2024-02-26T00:59:55;1.33;;;0.95;;
11935;SDS011;6027;48.576;9.180;2024-02-26T01:02:21;0.80;;;0.80;;
11935;SDS011;6027;48.576;9.180;2024-02-26T01:04:50;0.80;;;0.80;;
11935;SDS011;6027;48.576;9.180;2024-02-26T01:07:15;1.13;;;0.80;;
11935;SDS011;6027;48.576;9.180;2024-02-26T01:09:41;1.50;;;1.05;;
11935;SDS011;6027;48.576;9.180;2024-02-26T01:12:07;1.20;;;0.90;;
11935;SDS011;6027;48.576;9.180;2024-02-26T01:14:33;1.05;;;0.90;;
11935;SDS011;6027;48.576;9.180;2024-02-26T01:16:59;0.93;;;0.85;;
11935;SDS011;6027;48.576;9.180;2024-02-26T01:19:24;1.10;;;1.00;;
11935;SDS011;6027;48.576;9.180;2024-02-26T01:21:49;1.10;;;1.00;;
11935;SDS011;6027;48.576;9.180;2024-02-26T01:24:15;1.35;;;0.75;;
11935;SDS011;6027;48.576;9.180;2024-02-26T01:26:40;1.45;;;1.00;;
11935;SDS011;6027;48.576;9.180;2024-02-26T01:29:06;1.20;;;0.98;;
11935;SDS011;6027;48.576;9.180;2024-02-26T01:31:31;1.00;;;0.90;;
11935;SDS011;6027;48.576;9.180;2024-02-26T01:33:56;1.58;;;0.80;;
11935;SDS011;6027;48.576;9.180;2024-02-26T01:36:22;2.25;;;1.00;;
11935;SDS011;6027;48.576;9.180;2024-02-26T01:38:47;0.90;;;0.90;;
11935;SDS011;6027;48.576;9.180;2024-02-26T01:41:16;1.40;;;1.25;;
11935;SDS011;6027;48.576;9.180;2024-02-26T01:43:41;1.30;;;1.08;;
11935;SDS011;6027;48.576;9.180;2024-02-26T01:46:08;1.15;;;1.05;;
11935;SDS011;6027;48.576;9.180;2024-02-26T01:48:38;1.40;;;1.08;;
11935;SDS011;6027;48.576;9.180;2024-02-26T01:51:05;1.00;;;0.90;;
11935;SDS011;6027;48.576;9.180;2024-02-26T01:53:30;1.02;;;0.95;;
11935;SDS011;6027;48.576;9.180;2024-02-26T01:55:56;1.00;;;0.90;;
11935;SDS011;6027;48.576;9.180;2024-02-26T01:58:22;1.13;;;0.98;;
11935;SDS011;6027;48.576;9.180;2024-02-26T02:00:48;1.90;;;1.20;;
11935;SDS011;6027;48.576;9.180;2024-02-26T02:03:13;1.73;;;1.00;;
11935;SDS011;6027;48.576;9.180;2024-02-26T02:05:38;1.20;;;1.10;;
11935;SDS011;6027;48.576;9.180;2024-02-26T02:08:07;1.52;;;1.30;;
11935;SDS011;6027;48.576;9.180;2024-02-26T02:10:34;1.67;;;1.13;;
11935;SDS011;6027;48.576;9.180;2024-02-26T02:13:00;2.60;;;1.05;;
11935;SDS011;6027;48.576;9.180;2024-02-26T02:15:25;1.33;;;1.17;;
11935;SDS011;6027;48.576;9.180;2024-02-26T02:17:50;1.65;;;1.20;;
11935;SDS011;6027;48.576;9.180;2024-02-26T02:20:16;1.10;;;1.00;;
11935;SDS011;6027;48.576;9.180;2024-02-26T02:22:45;1.20;;;1.10;;
11935;SDS011;6027;48.576;9.180;2024-02-26T02:25:11;1.42;;;1.10;;
11935;SDS011;6027;48.576;9.180;2024-02-26T02:27:36;1.08;;;0.98;;
11935;SDS011;6027;48.576;9.180;2024-02-26T02:30:02;1.23;;;1.02;;
11935;SDS011;6027;48.576;9.180;2024-02-26T02:32:29;1.42;;;1.10;;
11935;SDS011;6027;48.576;9.180;2024-02-26T02:34:54;1.10;;;1.00;;
11935;SDS011;6027;48.576;9.180;2024-02-26T02:37:20;2.45;;;1.10;;
11935;SDS011;6027;48.576;9.180;2024-02-26T02:39:46;1.60;;;1.23;;
11935;SDS011;6027;48.576;9.180;2024-02-26T02:42:11;1.67;;;0.98;;
11935;SDS011;6027;48.576;9.180;2024-02-26T02:44:37;1.90;;;1.30;;
11935;SDS011;6027;48.576;9.180;2024-02-26T02:47:02;1.25;;;1.15;;
11935;SDS011;6027;48.576;9.180;2024-02-26T02:49:28;1.60;;;1.00;;
11935;SDS011;6027;48.576;9.180;2024-02-26T02:51:53;1.20;;;1.10;;
11935;SDS011;6027;48.576;9.180;2024-02-26T02:54:19;1.70;;;1.10;;
11935;SDS011;6027;48.576;9.180;2024-02-26T02:56:45;1.05;;;0.95;;
11935;SDS011;6027;48.576;9.180;2024-02-26T02:59:10;1.40;;;1.00;;
11935;SDS011;6027;48.576;9.180;2024-02-26T03:01:36;1.10;;;0.93;;
11935;SDS011;6027;48.576;9.180;2024-02-26T03:04:01;1.00;;;0.90;;
11935;SDS011;6027;48.576;9.180;2024-02-26T03:06:27;1.10;;;1.00;;
11935;SDS011;6027;48.576;9.180;2024-02-26T03:08:56;7.40;;;4.68;;
11935;SDS011;6027;48.576;9.180;2024-02-26T03:11:22;4.18;;;3.35;;
11935;SDS011;6027;48.576;9.180;2024-02-26T03:13:47;4.95;;;2.92;;
11935;SDS011;6027;48.576;9.180;2024-02-26T03:16:12;3.97;;;3.58;;
11935;SDS011;6027;48.576;9.180;2024-02-26T03:18:38;2.45;;;2.20;;
11935;SDS011;6027;48.576;9.180;2024-02-26T03:21:05;2.38;;;2.03;;
11935;SDS011;6027;48.576;9.180;2024-02-26T03:23:31;1.92;;;1.73;;
11935;SDS011;6027;48.576;9.180;2024-02-26T03:25:57;3.25;;;2.20;;
11935;SDS011;6027;48.576;9.180;2024-02-26T03:28:23;2.20;;;1.80;;
11935;SDS011;6027;48.576;9.180;2024-02-26T03:30:48;1.73;;;1.60;;
11935;SDS011;6027;48.576;9.180;2024-02-26T03:33:14;1.80;;;1.63;;
11935;SDS011;6027;48.576;9.180;2024-02-26T03:35:39;1.30;;;1.20;;
11935;SDS011;6027;48.576;9.180;2024-02-26T03:38:05;1.30;;;1.20;;
11935;SDS011;6027;48.576;9.180;2024-02-26T03:40:30;2.00;;;1.42;;
11935;SDS011;6027;48.576;9.180;2024-02-26T03:42:55;1.30;;;1.20;;
11935;SDS011;6027;48.576;9.180;2024-02-26T03:45:22;3.10;;;2.90;;
11935;SDS011;6027;48.576;9.180;2024-02-26T03:47:48;1.95;;;1.67;;
11935;SDS011;6027;48.576;9.180;2024-02-26T03:50:13;4.60;;;2.53;;
11935;SDS011;6027;48.576;9.180;2024-02-26T03:52:39;2.40;;;1.70;;
11935;SDS011;6027;48.576;9.180;2024-02-26T03:55:04;1.83;;;1.50;;
11935;SDS011;6027;48.576;9.180;2024-02-26T03:57:30;1.73;;;1.30;;
11935;SDS011;6027;48.576;9.180;2024-02-26T03:59:56;1.55;;;1.20;;
11935;SDS011;6027;48.576;9.180;2024-02-26T04:02:21;1.73;;;1.30;;
11935;SDS011;6027;48.576;9.180;2024-02-26T04:04:48;1.65;;;1.20;;
11935;SDS011;6027;48.576;9.180;2024-02-26T04:07:13;1.60;;;1.20;;
11935;SDS011;6027;48.576;9.180;2024-02-26T04:09:39;1.00;;;0.90;;
11935;SDS011;6027;48.576;9.180;2024-02-26T04:12:05;2.42;;;1.02;;
11935;SDS011;6027;48.576;9.180;2024-02-26T04:14:30;1.25;;;1.05;;
11935;SDS011;6027;48.576;9.180;2024-02-26T04:16:56;1.90;;;1.20;;
11935;SDS011;6027;48.576;9.180;2024-02-26T04:19:21;1.67;;;1.10;;
11935;SDS011;6027;48.576;9.180;2024-02-26T04:21:47;1.20;;;1.10;;
11935;SDS011;6027;48.576;9.180;2024-02-26T04:24:12;1.42;;;1.20;;
11935;SDS011;6027;48.576;9.180;2024-02-26T04:26:38;1.40;;;1.30;;
11935;SDS011;6027;48.576;9.180;2024-02-26T04:29:04;1.85;;;1.20;;
11935;SDS011;6027;48.576;9.180;2024-02-26T04:31:29;1.42;;;1.33;;
11935;SDS011;6027;48.576;9.180;2024-02-26T04:33:56;2.15;;;1.50;;
11935;SDS011;6027;48.576;9.180;2024-02-26T04:36:21;1.98;;;1.58;;
11935;SDS011;6027;48.576;9.180;2024-02-26T04:38:47;3.80;;;1.55;;
11935;SDS011;6027;48.576;9.180;2024-02-26T04:41:12;1.80;;;1.70;;
11935;SDS011;6027;48.576;9.180;2024-02-26T04:43:38;3.05;;;2.15;;
11935;SDS011;6027;48.576;9.180;2024-02-26T04:46:10;4.22;;;3.13;;
11935;SDS011;6027;48.576;9.180;2024-02-26T04:48:36;6.32;;;4.68;;
11935;SDS011;6027;48.576;9.180;2024-02-26T04:51:02;2.60;;;2.33;;
11935;SDS011;6027;48.576;9.180;2024-02-26T04:53:28;3.25;;;2.33;;
11935;SDS011;6027;48.576;9.180;2024-02-26T04:55:53;2.80;;;1.67;;
11935;SDS011;6027;48.576;9.180;2024-02-26T04:58:19;1.70;;;1.25;;
11935;SDS011;6027;48.576;9.180;2024-02-26T05:00:44;2.20;;;2.00;;
11935;SDS011;6027;48.576;9.180;2024-02-26T05:03:09;2.05;;;1.85;;
11935;SDS011;6027;48.576;9.180;2024-02-26T05:05:40;1.95;;;1.60;;
11935;SDS011;6027;48.576;9.180;2024-02-26T05:08:05;3.38;;;1.70;;
11935;SDS011;6027;48.576;9.180;2024-02-26T05:10:32;2.63;;;1.73;;
11935;SDS011;6027;48.576;9.180;2024-02-26T05:12:58;2.03;;;1.55;;
11935;SDS011;6027;48.576;9.180;2024-02-26T05:15:23;2.08;;;1.92;;
11935;SDS011;6027;48.576;9.180;2024-02-26T05:17:49;4.03;;;2.20;;
11935;SDS011;6027;48.576;9.180;2024-02-26T05:20:14;2.30;;;2.10;;
11935;SDS011;6027;48.576;9.180;2024-02-26T05:22:40;2.75;;;1.90;;
11935;SDS011;6027;48.576;9.180;2024-02-26T05:25:05;2.42;;;1.90;;
11935;SDS011;6027;48.576;9.180;2024-02-26T05:27:31;2.97;;;2.30;;
11935;SDS011;6027;48.576;9.180;2024-02-26T05:29:56;2.78;;;1.95;;
11935;SDS011;6027;48.576;9.180;2024-02-26T05:32:22;1.50;;;1.40;;
11935;SDS011;6027;48.576;9.180;2024-02-26T05:34:47;1.90;;;1.70;;
11935;SDS011;6027;48.576;9.180;2024-02-26T05:37:13;1.50;;;1.40;;
11935;SDS011;6027;48.576;9.180;2024-02-26T05:39:38;2.70;;;1.45;;
11935;SDS011;6027;48.576;9.180;2024-02-26T05:42:04;1.60;;;1.48;;
11935;SDS011;6027;48.576;9.180;2024-02-26T05:44:29;4.35;;;3.13;;
11935;SDS011;6027;48.576;9.180;2024-02-26T05:46:55;7.78;;;4.75;;
11935;SDS011;6027;48.576;9.180;2024-02-26T05:49:21;4.95;;;4.03;;
11935;SDS011;6027;48.576;9.180;2024-02-26T05:51:47;5.55;;;3.60;;
11935;SDS011;6027;48.576;9.180;2024-02-26T05:54:12;3.72;;;3.30;;
11935;SDS011;6027;48.576;9.180;2024-02-26T05:56:39;5.75;;;2.90;;
11935;SDS011;6027;48.576;9.180;2024-02-26T05:59:04;4.07;;;2.42;;
11935;SDS011;6027;48.576;9.180;2024-02-26T06:01:30;3.38;;;2.30;;
11935;SDS011;6027;48.576;9.180;2024-02-26T06:03:56;3.05;;;2.35;;
11935;SDS011;6027;48.576;9.180;2024-02-26T06:06:22;2.47;;;2.20;;
11935;SDS011;6027;48.576;9.180;2024-02-26T06:08:48;3.45;;;2.70;;
11935;SDS011;6027;48.576;9.180;2024-02-26T06:11:14;4.75;;;4.35;;
11935;SDS011;6027;48.576;9.180;2024-02-26T06:13:40;3.35;;;2.92;;
11935;SDS011;6027;48.576;9.180;2024-02-26T06:16:05;4.28;;;2.78;;
11935;SDS011;6027;48.576;9.180;2024-02-26T06:18:32;13.93;;;4.82;;
11935;SDS011;6027;48.576;9.180;2024-02-26T06:20:58;9.10;;;5.15;;
11935;SDS011;6027;48.576;9.180;2024-02-26T06:23:23;6.70;;;4.20;;
11935;SDS011;6027;48.576;9.180;2024-02-26T06:25:49;2.58;;;2.30;;
11935;SDS011;6027;48.576;9.180;2024-02-26T06:28:14;4.43;;;2.78;;
11935;SDS011;6027;48.576;9.180;2024-02-26T06:30:40;4.07;;;2.60;;
11935;SDS011;6027;48.576;9.180;2024-02-26T06:33:05;3.72;;;2.53;;
11935;SDS011;6027;48.576;9.180;2024-02-26T06:35:31;5.93;;;4.15;;
11935;SDS011;6027;48.576;9.180;2024-02-26T06:37:57;3.70;;;3.30;;
11935;SDS011;6027;48.576;9.180;2024-02-26T06:40:22;3.03;;;2.65;;
11935;SDS011;6027;48.576;9.180;2024-02-26T06:42:47;4.10;;;3.30;;
11935;SDS011;6027;48.576;9.180;2024-02-26T06:45:14;3.35;;;2.67;;
11935;SDS011;6027;48.576;9.180;2024-02-26T06:47:39;2.40;;;2.20;;
11935;SDS011;6027;48.576;9.180;2024-02-26T06:50:04;2.78;;;2.00;;
11935;SDS011;6027;48.576;9.180;2024-02-26T06:52:30;3.22;;;2.55;;
11935;SDS011;6027;48.576;9.180;2024-02-26T06:54:55;4.07;;;3.10;;
11935;SDS011;6027;48.576;9.180;2024-02-26T06:57:21;2.90;;;2.30;;
11935;SDS011;6027;48.576;9.180;2024-02-26T06:59:46;4.55;;;2.72;;
11935;SDS011;6027;48.576;9.180;2024-02-26T07:02:12;2.73;;;2.50;;
11935;SDS011;6027;48.576;9.180;2024-02-26T07:04:41;5.13;;;2.55;;
11935;SDS011;6027;48.576;9.180;2024-02-26T07:07:07;3.33;;;2.90;;
11935;SDS011;6027;48.576;9.180;2024-02-26T07:09:33;3.67;;;2.57;;
11935;SDS011;6027;48.576;9.180;2024-02-26T07:11:58;4.07;;;3.55;;
11935;SDS011;6027;48.576;9.180;2024-02-26T07:14:24;2.40;;;2.20;;
11935;SDS011;6027;48.576;9.180;2024-02-26T07:16:52;2.95;;;2.40;;
11935;SDS011;6027;48.576;9.180;2024-02-26T07:19:17;2.50;;;2.30;;
11935;SDS011;6027;48.576;9.180;2024-02-26T07:21:43;3.63;;;2.20;;
11935;SDS011;6027;48.576;9.180;2024-02-26T07:24:08;2.87;;;2.17;;
11935;SDS011;6027;48.576;9.180;2024-02-26T07:26:34;2.40;;;2.10;;
11935;SDS011;6027;48.576;9.180;2024-02-26T07:28:59;2.63;;;2.22;;
11935;SDS011;6027;48.576;9.180;2024-02-26T07:31:25;3.47;;;2.40;;
11935;SDS011;6027;48.576;9.180;2024-02-26T07:33:54;2.73;;;2.30;;
11935;SDS011;6027;48.576;9.180;2024-02-26T07:36:19;4.88;;;3.25;;
11935;SDS011;6027;48.576;9.180;2024-02-26T07:38:44;3.85;;;3.28;;
11935;SDS011;6027;48.576;9.180;2024-02-26T07:41:11;2.97;;;2.67;;
11935;SDS011;6027;48.576;9.180;2024-02-26T07:43:37;5.35;;;3.10;;
11935;SDS011;6027;48.576;9.180;2024-02-26T07:46:02;3.50;;;3.20;;
11935;SDS011;6027;48.576;9.180;2024-02-26T07:48:28;4.10;;;3.05;;
11935;SDS011;6027;48.576;9.180;2024-02-26T07:50:53;3.35;;;3.03;;
11935;SDS011;6027;48.576;9.180;2024-02-26T07:53:19;3.38;;;3.08;;
11935;SDS011;6027;48.576;9.180;2024-02-26T07:55:44;3.67;;;3.22;;
11935;SDS011;6027;48.576;9.180;2024-02-26T07:58:09;3.75;;;3.45;;
11935;SDS011;6027;48.576;9.180;2024-02-26T08:00:35;3.22;;;2.92;;
11935;SDS011;6027;48.576;9.180;2024-02-26T08:03:00;3.13;;;2.83;;
11935;SDS011;6027;48.576;9.180;2024-02-26T08:05:25;2.65;;;2.45;;
11935;SDS011;6027;48.576;9.180;2024-02-26T08:07:51;4.38;;;2.60;;
11935;SDS011;6027;48.576;9.180;2024-02-26T08:10:16;2.20;;;2.00;;
11935;SDS011;6027;48.576;9.180;2024-02-26T08:12:42;2.17;;;1.80;;
11935;SDS011;6027;48.576;9.180;2024-02-26T08:15:07;2.17;;;1.40;;
11935;SDS011;6027;48.576;9.180;2024-02-26T08:17:33;2.45;;;1.90;;
11935;SDS011;6027;48.576;9.180;2024-02-26T08:19:59;2.60;;;1.77;;
11935;SDS011;6027;48.576;9.180;2024-02-26T08:22:25;1.95;;;1.77;;
11935;SDS011;6027;48.576;9.180;2024-02-26T08:24:50;2.13;;;1.90;;
11935;SDS011;6027;48.576;9.180;2024-02-26T08:27:16;2.85;;;2.60;;
11935;SDS011;6027;48.576;9.180;2024-02-26T08:29:41;2.35;;;1.85;;
11935;SDS011;6027;48.576;9.180;2024-02-26T08:32:06;2.25;;;1.83;;
11935;SDS011;6027;48.576;9.180;2024-02-26T08:34:32;2.70;;;2.13;;
11935;SDS011;6027;48.576;9.180;2024-02-26T08:36:58;2.88;;;2.60;;
11935;SDS011;6027;48.576;9.180;2024-02-26T08:39:23;2.58;;;2.38;;
11935;SDS011;6027;48.576;9.180;2024-02-26T08:41:49;3.85;;;2.35;;
11935;SDS011;6027;48.576;9.180;2024-02-26T08:44:15;2.30;;;2.10;;
11935;SDS011;6027;48.576;9.180;2024-02-26T08:46:40;2.38;;;1.70;;
11935;SDS011;6027;48.576;9.180;2024-02-26T08:49:05;3.70;;;2.20;;
11935;SDS011;6027;48.576;9.180;2024-02-26T08:51:31;2.50;;;2.30;;
11935;SDS011;6027;48.576;9.180;2024-02-26T08:53:56;3.53;;;2.10;;
11935;SDS011;6027;48.576;9.180;2024-02-26T08:56:21;3.10;;;2.22;;
11935;SDS011;6027;48.576;9.180;2024-02-26T08:58:47;1.90;;;1.75;;
11935;SDS011;6027;48.576;9.180;2024-02-26T09:01:18;2.75;;;2.10;;
11935;SDS011;6027;48.576;9.180;2024-02-26T09:03:44;2.13;;;1.80;;
11935;SDS011;6027;48.576;9.180;2024-02-26T09:06:09;2.35;;;1.73;;
11935;SDS011;6027;48.576;9.180;2024-02-26T09:08:36;2.38;;;1.42;;
11935;SDS011;6027;48.576;9.180;2024-02-26T09:11:02;1.90;;;1.60;;
11935;SDS011;6027;48.576;9.180;2024-02-26T09:13:28;3.17;;;1.80;;
11935;SDS011;6027;48.576;9.180;2024-02-26T09:15:57;3.10;;;2.20;;
11935;SDS011;6027;48.576;9.180;2024-02-26T09:18:23;3.40;;;2.10;;
11935;SDS011;6027;48.576;9.180;2024-02-26T09:20:49;2.47;;;2.28;;
11935;SDS011;6027;48.576;9.180;2024-02-26T09:23:15;3.10;;;1.90;;
11935;SDS011;6027;48.576;9.180;2024-02-26T09:25:40;3.88;;;2.38;;
11935;SDS011;6027;48.576;9.180;2024-02-26T09:28:06;2.50;;;1.80;;
11935;SDS011;6027;48.576;9.180;2024-02-26T09:30:31;2.65;;;1.88;;
11935;SDS011;6027;48.576;9.180;2024-02-26T09:32:56;1.95;;;1.70;;
11935;SDS011;6027;48.576;9.180;2024-02-26T09:35:22;2.67;;;1.60;;
11935;SDS011;6027;48.576;9.180;2024-02-26T09:37:47;3.88;;;1.85;;
11935;SDS011;6027;48.576;9.180;2024-02-26T09:40:14;2.50;;;2.08;;
11935;SDS011;6027;48.576;9.180;2024-02-26T09:42:42;1.98;;;1.77;;
11935;SDS011;6027;48.576;9.180;2024-02-26T09:45:10;1.70;;;1.60;;
11935;SDS011;6027;48.576;9.180;2024-02-26T09:47:42;1.95;;;1.60;;
11935;SDS011;6027;48.576;9.180;2024-02-26T09:50:09;2.28;;;1.98;;
11935;SDS011;6027;48.576;9.180;2024-02-26T09:52:34;4.20;;;2.30;;
11935;SDS011;6027;48.576;9.180;2024-02-26T09:55:03;3.22;;;2.60;;
11935;SDS011;6027;48.576;9.180;2024-02-26T09:57:29;3.55;;;2.15;;
11935;SDS011;6027;48.576;9.180;2024-02-26T09:59:57;3.35;;;1.48;;
11935;SDS011;6027;48.576;9.180;2024-02-26T10:02:28;2.60;;;2.20;;
11935;SDS011;6027;48.576;9.180;2024-02-26T10:04:55;2.30;;;2.10;;
11935;SDS011;6027;48.576;9.180;2024-02-26T10:07:26;3.25;;;1.98;;
11935;SDS011;6027;48.576;9.180;2024-02-26T10:09:54;2.63;;;1.98;;
11935;SDS011;6027;48.576;9.180;2024-02-26T10:12:20;3.38;;;2.63;;
11935;SDS011;6027;48.576;9.180;2024-02-26T10:14:47;2.00;;;1.80;;
11935;SDS011;6027;48.576;9.180;2024-02-26T10:17:12;2.30;;;1.80;;
11935;SDS011;6027;48.576;9.180;2024-02-26T10:19:38;3.03;;;2.45;;
11935;SDS011;6027;48.576;9.180;2024-02-26T10:22:03;4.30;;;3.25;;
11935;SDS011;6027;48.576;9.180;2024-02-26T10:24:29;2.88;;;2.10;;
11935;SDS011;6027;48.576;9.180;2024-02-26T10:26:56;4.10;;;2.92;;
11935;SDS011;6027;48.576;9.180;2024-02-26T10:29:24;2.42;;;2.03;;
11935;SDS011;6027;48.576;9.180;2024-02-26T10:31:50;3.30;;;2.00;;
11935;SDS011;6027;48.576;9.180;2024-02-26T10:34:16;2.78;;;1.73;;
11935;SDS011;6027;48.576;9.180;2024-02-26T10:36:42;2.67;;;1.90;;
11935;SDS011;6027;48.576;9.180;2024-02-26T10:39:08;2.80;;;2.10;;
11935;SDS011;6027;48.576;9.180;2024-02-26T10:41:36;2.53;;;1.90;;
11935;SDS011;6027;48.576;9.180;2024-02-26T10:44:03;2.30;;;2.03;;
11935;SDS011;6027;48.576;9.180;2024-02-26T10:46:28;3.67;;;3.13;;
11935;SDS011;6027;48.576;9.180;2024-02-26T10:48:54;2.65;;;2.22;;
11935;SDS011;6027;48.576;9.180;2024-02-26T10:51:22;4.00;;;1.80;;
11935;SDS011;6027;48.576;9.180;2024-02-26T10:53:57;2.78;;;2.10;;
11935;SDS011;6027;48.576;9.180;2024-02-26T10:56:26;2.38;;;1.95;;
11935;SDS011;6027;48.576;9.180;2024-02-26T10:58:53;1.75;;;1.63;;
11935;SDS011;6027;48.576;9.180;2024-02-26T11:01:19;1.98;;;1.75;;
11935;SDS011;6027;48.576;9.180;2024-02-26T11:03:46;2.15;;;1.90;;
11935;SDS011;6027;48.576;9.180;2024-02-26T11:06:15;2.28;;;1.90;;
11935;SDS011;6027;48.576;9.180;2024-02-26T11:08:40;2.78;;;1.85;;
11935;SDS011;6027;48.576;9.180;2024-02-26T11:11:06;2.08;;;1.73;;
11935;SDS011;6027;48.576;9.180;2024-02-26T11:13:32;5.20;;;1.92;;
11935;SDS011;6027;48.576;9.180;2024-02-26T11:15:59;2.65;;;1.88;;
11935;SDS011;6027;48.576;9.180;2024-02-26T11:18:29;2.10;;;1.80;;
11935;SDS011;6027;48.576;9.180;2024-02-26T11:20:56;4.45;;;1.60;;
11935;SDS011;6027;48.576;9.180;2024-02-26T11:23:22;2.35;;;1.70;;
11935;SDS011;6027;48.576;9.180;2024-02-26T11:25:52;3.75;;;1.88;;
11935;SDS011;6027;48.576;9.180;2024-02-26T11:28:22;3.17;;;1.80;;
11935;SDS011;6027;48.576;9.180;2024-02-26T11:30:49;3.55;;;1.73;;
11935;SDS011;6027;48.576;9.180;2024-02-26T11:33:16;3.20;;;2.67;;
11935;SDS011;6027;48.576;9.180;2024-02-26T11:35:44;2.00;;;1.80;;
11935;SDS011;6027;48.576;9.180;2024-02-26T11:38:16;4.30;;;1.65;;
11935;SDS011;6027;48.576;9.180;2024-02-26T11:40:45;1.65;;;1.55;;
11935;SDS011;6027;48.576;9.180;2024-02-26T11:43:12;2.17;;;1.50;;
11935;SDS011;6027;48.576;9.180;2024-02-26T11:48:03;6.22;;;3.25;;
11935;SDS011;6027;48.576;9.180;2024-02-26T11:50:36;4.72;;;3.03;;
11935;SDS011;6027;48.576;9.180;2024-02-26T11:53:19;5.75;;;3.50;;
11935;SDS011;6027;48.576;9.180;2024-02-26T11:58:42;2.10;;;1.70;;
11935;SDS011;6027;48.576;9.180;2024-02-26T12:06:43;2.25;;;1.30;;
11935;SDS011;6027;48.576;9.180;2024-02-26T12:09:10;2.05;;;1.20;;
11935;SDS011;6027;48.576;9.180;2024-02-26T12:11:40;1.38;;;1.08;;
11935;SDS011;6027;48.576;9.180;2024-02-26T12:14:07;1.08;;;0.98;;
11935;SDS011;6027;48.576;9.180;2024-02-26T12:16:35;3.35;;;1.33;;
11935;SDS011;6027;48.576;9.180;2024-02-26T12:19:05;3.70;;;0.90;;
11935;SDS011;6027;48.576;9.180;2024-02-26T12:21:35;1.40;;;1.23;;
11935;SDS011;6027;48.576;9.180;2024-02-26T12:24:12;1.05;;;1.00;;
11935;SDS011;6027;48.576;9.180;2024-02-26T12:26:39;1.67;;;1.20;;
11935;SDS011;6027;48.576;9.180;2024-02-26T12:29:05;3.63;;;1.40;;
11935;SDS011;6027;48.576;9.180;2024-02-26T12:31:31;2.38;;;1.40;;
11935;SDS011;6027;48.576;9.180;2024-02-26T12:33:58;1.60;;;1.45;;
11935;SDS011;6027;48.576;9.180;2024-02-26T12:36:24;1.73;;;1.30;;
11935;SDS011;6027;48.576;9.180;2024-02-26T12:38:52;1.63;;;1.20;;
11935;SDS011;6027;48.576;9.180;2024-02-26T12:41:18;1.90;;;1.33;;
11935;SDS011;6027;48.576;9.180;2024-02-26T12:43:44;2.22;;;1.08;;
11935;SDS011;6027;48.576;9.180;2024-02-26T12:46:11;1.67;;;1.15;;
11935;SDS011;6027;48.576;9.180;2024-02-26T12:48:37;1.55;;;1.38;;
11935;SDS011;6027;48.576;9.180;2024-02-26T12:51:04;1.98;;;0.93;;
11935;SDS011;6027;48.576;9.180;2024-02-26T12:53:30;2.00;;;1.40;;
11935;SDS011;6027;48.576;9.180;2024-02-26T12:55:55;1.60;;;1.20;;
11935;SDS011;6027;48.576;9.180;2024-02-26T12:58:21;2.05;;;1.80;;
11935;SDS011;6027;48.576;9.180;2024-02-26T13:00:52;1.45;;;1.35;;
11935;SDS011;6027;48.576;9.180;2024-02-26T13:03:19;1.95;;;1.15;;
11935;SDS011;6027;48.576;9.180;2024-02-26T13:05:47;1.75;;;1.30;;
11935;SDS011;6027;48.576;9.180;2024-02-26T13:08:20;3.53;;;1.48;;
11935;SDS011;6027;48.576;9.180;2024-02-26T13:10:46;1.65;;;1.40;;
11935;SDS011;6027;48.576;9.180;2024-02-26T13:13:14;2.40;;;1.30;;
11935;SDS011;6027;48.576;9.180;2024-02-26T13:15:40;2.03;;;1.40;;
11935;SDS011;6027;48.576;9.180;2024-02-26T13:18:09;1.20;;;1.10;;
11935;SDS011;6027;48.576;9.180;2024-02-26T13:20:35;1.30;;;1.20;;
11935;SDS011;6027;48.576;9.180;2024-02-26T13:23:04;1.58;;;1.40;;
11935;SDS011;6027;48.576;9.180;2024-02-26T13:25:31;3.25;;;2.10;;
11935;SDS011;6027;48.576;9.180;2024-02-26T13:28:17;3.35;;;2.40;;
11935;SDS011;6027;48.576;9.180;2024-02-26T13:30:51;2.47;;;2.05;;
11935;SDS011;6027;48.576;9.180;2024-02-26T13:33:20;1.33;;;1.23;;
11935;SDS011;6027;48.576;9.180;2024-02-26T13:35:46;1.98;;;1.23;;
11935;SDS011;6027;48.576;9.180;2024-02-26T13:38:11;1.20;;;1.10;;
11935;SDS011;6027;48.576;9.180;2024-02-26T13:40:37;2.50;;;1.30;;
11935;SDS011;6027;48.576;9.180;2024-02-26T13:43:04;1.38;;;1.00;;
11935;SDS011;6027;48.576;9.180;2024-02-26T13:45:29;1.38;;;1.17;;
11935;SDS011;6027;48.576;9.180;2024-02-26T13:47:59;1.52;;;1.10;;
11935;SDS011;6027;48.576;9.180;2024-02-26T13:50:27;2.10;;;1.10;;
11935;SDS011;6027;48.576;9.180;2024-02-26T13:52:52;1.02;;;0.93;;
11935;SDS011;6027;48.576;9.180;2024-02-26T13:55:20;1.30;;;1.05;;
11935;SDS011;6027;48.576;9.180;2024-02-26T13:57:47;1.50;;;0.90;;
11935;SDS011;6027;48.576;9.180;2024-02-26T14:00:13;1.10;;;1.00;;
11935;SDS011;6027;48.576;9.180;2024-02-26T14:02:39;1.65;;;1.10;;
11935;SDS011;6027;48.576;9.180;2024-02-26T14:05:04;2.38;;;1.10;;
11935;SDS011;6027;48.576;9.180;2024-02-26T14:07:30;1.48;;;1.05;;
11935;SDS011;6027;48.576;9.180;2024-02-26T14:09:58;1.52;;;1.13;;
11935;SDS011;6027;48.576;9.180;2024-02-26T14:12:24;1.55;;;1.00;;
11935;SDS011;6027;48.576;9.180;2024-02-26T14:14:49;1.20;;;0.93;;
11935;SDS011;6027;48.576;9.180;2024-02-26T14:17:15;0.75;;;0.73;;
11935;SDS011;6027;48.576;9.180;2024-02-26T14:19:41;1.38;;;0.95;;
11935;SDS011;6027;48.576;9.180;2024-02-26T14:22:12;1.90;;;0.98;;
11935;SDS011;6027;48.576;9.180;2024-02-26T14:24:38;1.73;;;1.17;;
11935;SDS011;6027;48.576;9.180;2024-02-26T14:27:04;1.30;;;0.90;;
11935;SDS011;6027;48.576;9.180;2024-02-26T14:29:30;1.38;;;0.60;;
11935;SDS011;6027;48.576;9.180;2024-02-26T14:31:55;2.10;;;1.42;;
11935;SDS011;6027;48.576;9.180;2024-02-26T14:34:21;2.97;;;1.75;;
11935;SDS011;6027;48.576;9.180;2024-02-26T14:36:47;3.58;;;1.20;;
11935;SDS011;6027;48.576;9.180;2024-02-26T14:39:12;2.67;;;1.40;;
11935;SDS011;6027;48.576;9.180;2024-02-26T14:41:38;2.17;;;1.92;;
11935;SDS011;6027;48.576;9.180;2024-02-26T14:44:04;1.58;;;1.13;;
11935;SDS011;6027;48.576;9.180;2024-02-26T14:46:30;4.88;;;1.10;;
11935;SDS011;6027;48.576;9.180;2024-02-26T14:48:55;1.23;;;1.13;;
11935;SDS011;6027;48.576;9.180;2024-02-26T14:51:21;1.40;;;1.30;;
11935;SDS011;6027;48.576;9.180;2024-02-26T14:53:47;1.42;;;1.10;;
11935;SDS011;6027;48.576;9.180;2024-02-26T14:56:13;1.77;;;0.95;;
11935;SDS011;6027;48.576;9.180;2024-02-26T14:58:38;3.35;;;1.20;;
11935;SDS011;6027;48.576;9.180;2024-02-26T15:01:04;1.20;;;1.10;;
11935;SDS011;6027;48.576;9.180;2024-02-26T15:03:29;1.20;;;1.02;;
11935;SDS011;6027;48.576;9.180;2024-02-26T15:05:54;1.50;;;1.00;;